Terminal Aerodrome Forecast
Issued by NWS Louisville, KY

Home | Current Version | Previous Version | Text Only | Print | Product List | Glossary On
Versions: 1 2 3 4 5 6 7 8 9 10 11 12 13 14 15 16 17
069
FTUS43 KLMK 042320
TAFBWG
TAF
KBWG 042320Z 0500/0524 30013G20KT P6SM VCSH BKN035
     FM050100 30008KT P6SM SCT035 SCT060
     FM051400 31010G18KT P6SM BKN025
     FM052000 34010G20KT P6SM BKN035=

USA.gov is the U.S. government's official web portal to all federal, state and local government web resources and services.